Terminal Aerodrome Forecast
Issued by NWS Upton, NY

Home | Current Version | Previous Version | Text Only | Print | Product List | Glossary On
Versions: 1 2 3 4 5 6 7 8 9 10 11 12 13 14 15 16 17 18 19 20 21 22 23 24 25 26 27 28 29 30 31
000
FTUS41 KOKX 032320
TAFLGA
TAF
KLGA 032320Z 0400/0424 17006KT P6SM FEW070 BKN200
     FM040800 08005KT P6SM OVC100
     FM041400 06012KT P6SM SCT035 OVC060 PROB30 0414/0420 5SM -RA
      BKN035
     FM042000 04007KT P6SM BKN060=

USA.gov is the U.S. government's official web portal to all federal, state and local government web resources and services.